sensor_id;sensor_type;location;lat;lon;timestamp;P1;durP1;ratioP1;P2;durP2;ratioP2
10216;SDS011;5152;59.674;16.838;2023-10-08T00:01:37;0.60;;;0.60;;
10216;SDS011;5152;59.674;16.838;2023-10-08T00:04:09;1.60;;;0.70;;
10216;SDS011;5152;59.674;16.838;2023-10-08T00:06:36;1.77;;;0.60;;
10216;SDS011;5152;59.674;16.838;2023-10-08T00:09:04;0.63;;;0.30;;
10216;SDS011;5152;59.674;16.838;2023-10-08T00:11:36;0.47;;;0.47;;
10216;SDS011;5152;59.674;16.838;2023-10-08T00:14:04;0.50;;;0.50;;
10216;SDS011;5152;59.674;16.838;2023-10-08T00:16:34;0.50;;;0.50;;
10216;SDS011;5152;59.674;16.838;2023-10-08T00:19:04;0.50;;;0.50;;
10216;SDS011;5152;59.674;16.838;2023-10-08T00:21:35;0.80;;;0.63;;
10216;SDS011;5152;59.674;16.838;2023-10-08T00:24:04;1.00;;;0.60;;
10216;SDS011;5152;59.674;16.838;2023-10-08T00:26:32;1.70;;;0.63;;
10216;SDS011;5152;59.674;16.838;2023-10-08T00:29:05;1.90;;;0.47;;
10216;SDS011;5152;59.674;16.838;2023-10-08T00:31:41;0.70;;;0.40;;
10216;SDS011;5152;59.674;16.838;2023-10-08T00:34:10;1.70;;;0.60;;
10216;SDS011;5152;59.674;16.838;2023-10-08T00:36:40;0.30;;;0.30;;
10216;SDS011;5152;59.674;16.838;2023-10-08T00:39:07;1.80;;;0.70;;
10216;SDS011;5152;59.674;16.838;2023-10-08T00:41:35;0.90;;;0.63;;
10216;SDS011;5152;59.674;16.838;2023-10-08T00:44:06;0.73;;;0.57;;
10216;SDS011;5152;59.674;16.838;2023-10-08T00:46:33;1.37;;;0.70;;
10216;SDS011;5152;59.674;16.838;2023-10-08T00:49:12;0.77;;;0.60;;
10216;SDS011;5152;59.674;16.838;2023-10-08T00:52:05;3.23;;;0.77;;
10216;SDS011;5152;59.674;16.838;2023-10-08T00:54:51;0.40;;;0.40;;
10216;SDS011;5152;59.674;16.838;2023-10-08T00:57:31;0.93;;;0.60;;
10216;SDS011;5152;59.674;16.838;2023-10-08T01:00:01;0.90;;;0.50;;
10216;SDS011;5152;59.674;16.838;2023-10-08T01:02:31;0.40;;;0.40;;
10216;SDS011;5152;59.674;16.838;2023-10-08T01:05:10;2.23;;;0.63;;
10216;SDS011;5152;59.674;16.838;2023-10-08T01:07:41;0.37;;;0.37;;
10216;SDS011;5152;59.674;16.838;2023-10-08T01:10:10;1.33;;;0.50;;
10216;SDS011;5152;59.674;16.838;2023-10-08T01:12:39;0.43;;;0.30;;
10216;SDS011;5152;59.674;16.838;2023-10-08T01:15:19;0.40;;;0.40;;
10216;SDS011;5152;59.674;16.838;2023-10-08T01:17:53;0.63;;;0.57;;
10216;SDS011;5152;59.674;16.838;2023-10-08T01:20:26;0.83;;;0.60;;
10216;SDS011;5152;59.674;16.838;2023-10-08T01:23:05;0.50;;;0.50;;
10216;SDS011;5152;59.674;16.838;2023-10-08T01:25:38;0.77;;;0.50;;
10216;SDS011;5152;59.674;16.838;2023-10-08T01:28:06;0.50;;;0.50;;
10216;SDS011;5152;59.674;16.838;2023-10-08T01:30:40;0.60;;;0.60;;
10216;SDS011;5152;59.674;16.838;2023-10-08T01:33:08;0.60;;;0.50;;
10216;SDS011;5152;59.674;16.838;2023-10-08T01:35:39;1.70;;;0.50;;
10216;SDS011;5152;59.674;16.838;2023-10-08T01:38:07;2.67;;;0.40;;
10216;SDS011;5152;59.674;16.838;2023-10-08T01:40:38;0.87;;;0.60;;
10216;SDS011;5152;59.674;16.838;2023-10-08T01:43:06;0.47;;;0.47;;
10216;SDS011;5152;59.674;16.838;2023-10-08T01:45:37;0.60;;;0.53;;
10216;SDS011;5152;59.674;16.838;2023-10-08T01:48:08;1.13;;;0.70;;
10216;SDS011;5152;59.674;16.838;2023-10-08T01:50:36;3.67;;;0.67;;
10216;SDS011;5152;59.674;16.838;2023-10-08T01:53:03;0.40;;;0.37;;
10216;SDS011;5152;59.674;16.838;2023-10-08T01:55:35;1.83;;;0.70;;
10216;SDS011;5152;59.674;16.838;2023-10-08T01:58:14;0.40;;;0.40;;
10216;SDS011;5152;59.674;16.838;2023-10-08T02:00:43;1.90;;;0.57;;
10216;SDS011;5152;59.674;16.838;2023-10-08T02:03:11;0.63;;;0.40;;
10216;SDS011;5152;59.674;16.838;2023-10-08T02:05:40;2.73;;;0.50;;
10216;SDS011;5152;59.674;16.838;2023-10-08T02:08:08;0.93;;;0.50;;
10216;SDS011;5152;59.674;16.838;2023-10-08T02:10:37;0.97;;;0.60;;
10216;SDS011;5152;59.674;16.838;2023-10-08T02:13:05;2.23;;;0.50;;
10216;SDS011;5152;59.674;16.838;2023-10-08T02:15:33;1.03;;;0.57;;
10216;SDS011;5152;59.674;16.838;2023-10-08T02:18:02;2.43;;;0.67;;
10216;SDS011;5152;59.674;16.838;2023-10-08T02:20:29;0.30;;;0.30;;
10216;SDS011;5152;59.674;16.838;2023-10-08T02:22:56;0.73;;;0.50;;
10216;SDS011;5152;59.674;16.838;2023-10-08T02:25:24;1.07;;;0.73;;
10216;SDS011;5152;59.674;16.838;2023-10-08T02:27:53;1.90;;;0.60;;
10216;SDS011;5152;59.674;16.838;2023-10-08T02:30:20;0.50;;;0.40;;
10216;SDS011;5152;59.674;16.838;2023-10-08T02:32:46;0.43;;;0.43;;
10216;SDS011;5152;59.674;16.838;2023-10-08T02:35:14;0.57;;;0.37;;
10216;SDS011;5152;59.674;16.838;2023-10-08T02:37:42;0.30;;;0.30;;
10216;SDS011;5152;59.674;16.838;2023-10-08T02:40:11;1.47;;;0.60;;
10216;SDS011;5152;59.674;16.838;2023-10-08T02:42:44;1.83;;;0.33;;
10216;SDS011;5152;59.674;16.838;2023-10-08T02:45:14;0.50;;;0.40;;
10216;SDS011;5152;59.674;16.838;2023-10-08T02:47:41;0.97;;;0.53;;
10216;SDS011;5152;59.674;16.838;2023-10-08T02:50:10;2.53;;;0.67;;
10216;SDS011;5152;59.674;16.838;2023-10-08T02:52:42;1.73;;;0.80;;
10216;SDS011;5152;59.674;16.838;2023-10-08T02:55:11;1.60;;;0.50;;
10216;SDS011;5152;59.674;16.838;2023-10-08T02:57:48;2.00;;;0.40;;
10216;SDS011;5152;59.674;16.838;2023-10-08T03:00:17;1.40;;;0.73;;
10216;SDS011;5152;59.674;16.838;2023-10-08T03:02:45;2.23;;;0.67;;
10216;SDS011;5152;59.674;16.838;2023-10-08T03:05:12;1.83;;;0.50;;
10216;SDS011;5152;59.674;16.838;2023-10-08T03:07:42;1.77;;;0.50;;
10216;SDS011;5152;59.674;16.838;2023-10-08T03:10:09;0.37;;;0.30;;
10216;SDS011;5152;59.674;16.838;2023-10-08T03:12:44;2.00;;;0.53;;
10216;SDS011;5152;59.674;16.838;2023-10-08T03:15:12;0.40;;;0.30;;
10216;SDS011;5152;59.674;16.838;2023-10-08T03:17:54;1.47;;;0.50;;
10216;SDS011;5152;59.674;16.838;2023-10-08T03:20:22;0.80;;;0.50;;
10216;SDS011;5152;59.674;16.838;2023-10-08T03:23:07;1.33;;;0.43;;
10216;SDS011;5152;59.674;16.838;2023-10-08T03:25:49;0.93;;;0.60;;
10216;SDS011;5152;59.674;16.838;2023-10-08T03:28:21;0.63;;;0.30;;
10216;SDS011;5152;59.674;16.838;2023-10-08T03:30:50;0.83;;;0.50;;
10216;SDS011;5152;59.674;16.838;2023-10-08T03:33:22;0.67;;;0.50;;
10216;SDS011;5152;59.674;16.838;2023-10-08T03:35:51;1.50;;;0.47;;
10216;SDS011;5152;59.674;16.838;2023-10-08T03:38:20;1.80;;;0.60;;
10216;SDS011;5152;59.674;16.838;2023-10-08T03:40:53;0.83;;;0.50;;
10216;SDS011;5152;59.674;16.838;2023-10-08T03:43:29;0.93;;;0.37;;
10216;SDS011;5152;59.674;16.838;2023-10-08T03:46:08;0.70;;;0.70;;
10216;SDS011;5152;59.674;16.838;2023-10-08T03:48:42;2.50;;;1.00;;
10216;SDS011;5152;59.674;16.838;2023-10-08T03:51:10;4.77;;;0.70;;
10216;SDS011;5152;59.674;16.838;2023-10-08T03:53:38;1.30;;;0.70;;
10216;SDS011;5152;59.674;16.838;2023-10-08T03:56:23;0.90;;;0.40;;
10216;SDS011;5152;59.674;16.838;2023-10-08T03:58:51;0.77;;;0.40;;
10216;SDS011;5152;59.674;16.838;2023-10-08T04:01:20;0.63;;;0.47;;
10216;SDS011;5152;59.674;16.838;2023-10-08T04:03:50;0.90;;;0.40;;
10216;SDS011;5152;59.674;16.838;2023-10-08T04:06:26;0.73;;;0.60;;
10216;SDS011;5152;59.674;16.838;2023-10-08T04:09:03;4.43;;;0.60;;
10216;SDS011;5152;59.674;16.838;2023-10-08T04:11:49;0.67;;;0.67;;
10216;SDS011;5152;59.674;16.838;2023-10-08T04:14:19;3.17;;;0.60;;
10216;SDS011;5152;59.674;16.838;2023-10-08T04:16:46;1.87;;;0.70;;
10216;SDS011;5152;59.674;16.838;2023-10-08T04:19:18;1.10;;;0.60;;
10216;SDS011;5152;59.674;16.838;2023-10-08T04:21:45;0.93;;;0.30;;
10216;SDS011;5152;59.674;16.838;2023-10-08T04:24:19;1.70;;;0.50;;
10216;SDS011;5152;59.674;16.838;2023-10-08T04:26:53;0.63;;;0.60;;
10216;SDS011;5152;59.674;16.838;2023-10-08T04:29:22;0.67;;;0.67;;
10216;SDS011;5152;59.674;16.838;2023-10-08T04:31:50;1.10;;;0.60;;
10216;SDS011;5152;59.674;16.838;2023-10-08T04:34:28;1.67;;;0.60;;
10216;SDS011;5152;59.674;16.838;2023-10-08T04:36:58;0.63;;;0.50;;
10216;SDS011;5152;59.674;16.838;2023-10-08T04:39:26;0.70;;;0.70;;
10216;SDS011;5152;59.674;16.838;2023-10-08T04:41:58;5.87;;;0.70;;
10216;SDS011;5152;59.674;16.838;2023-10-08T04:44:31;0.67;;;0.50;;
10216;SDS011;5152;59.674;16.838;2023-10-08T04:46:58;0.47;;;0.37;;
10216;SDS011;5152;59.674;16.838;2023-10-08T04:49:31;1.03;;;0.50;;
10216;SDS011;5152;59.674;16.838;2023-10-08T04:51:59;3.93;;;0.47;;
10216;SDS011;5152;59.674;16.838;2023-10-08T04:54:30;1.43;;;0.53;;
10216;SDS011;5152;59.674;16.838;2023-10-08T04:56:58;0.87;;;0.30;;
10216;SDS011;5152;59.674;16.838;2023-10-08T04:59:25;0.30;;;0.30;;
10216;SDS011;5152;59.674;16.838;2023-10-08T05:01:59;1.70;;;0.30;;
10216;SDS011;5152;59.674;16.838;2023-10-08T05:04:46;1.13;;;0.60;;
10216;SDS011;5152;59.674;16.838;2023-10-08T05:07:32;1.97;;;0.77;;
10216;SDS011;5152;59.674;16.838;2023-10-08T05:10:21;1.00;;;0.33;;
10216;SDS011;5152;59.674;16.838;2023-10-08T05:13:11;2.83;;;0.63;;
10216;SDS011;5152;59.674;16.838;2023-10-08T05:15:41;0.77;;;0.60;;
10216;SDS011;5152;59.674;16.838;2023-10-08T05:18:15;0.50;;;0.50;;
10216;SDS011;5152;59.674;16.838;2023-10-08T05:20:50;1.63;;;0.67;;
10216;SDS011;5152;59.674;16.838;2023-10-08T05:23:39;2.23;;;0.50;;
10216;SDS011;5152;59.674;16.838;2023-10-08T05:26:18;0.47;;;0.47;;
10216;SDS011;5152;59.674;16.838;2023-10-08T05:28:56;3.03;;;0.60;;
10216;SDS011;5152;59.674;16.838;2023-10-08T05:31:48;1.33;;;0.57;;
10216;SDS011;5152;59.674;16.838;2023-10-08T05:34:35;1.23;;;0.53;;
10216;SDS011;5152;59.674;16.838;2023-10-08T05:37:09;0.90;;;0.50;;
10216;SDS011;5152;59.674;16.838;2023-10-08T05:39:58;0.57;;;0.47;;
10216;SDS011;5152;59.674;16.838;2023-10-08T05:42:38;0.40;;;0.23;;
10216;SDS011;5152;59.674;16.838;2023-10-08T05:45:12;1.03;;;0.50;;
10216;SDS011;5152;59.674;16.838;2023-10-08T05:47:54;1.30;;;0.77;;
10216;SDS011;5152;59.674;16.838;2023-10-08T05:50:33;0.90;;;0.50;;
10216;SDS011;5152;59.674;16.838;2023-10-08T05:53:10;0.90;;;0.67;;
10216;SDS011;5152;59.674;16.838;2023-10-08T05:55:55;3.00;;;0.63;;
10216;SDS011;5152;59.674;16.838;2023-10-08T05:58:41;3.70;;;0.83;;
10216;SDS011;5152;59.674;16.838;2023-10-08T06:01:11;0.20;;;0.20;;
10216;SDS011;5152;59.674;16.838;2023-10-08T06:03:54;1.30;;;0.70;;
10216;SDS011;5152;59.674;16.838;2023-10-08T06:06:25;1.57;;;0.40;;
10216;SDS011;5152;59.674;16.838;2023-10-08T06:09:05;0.77;;;0.20;;
10216;SDS011;5152;59.674;16.838;2023-10-08T06:11:46;1.60;;;0.67;;
10216;SDS011;5152;59.674;16.838;2023-10-08T06:14:33;1.03;;;0.50;;
10216;SDS011;5152;59.674;16.838;2023-10-08T06:17:18;0.60;;;0.50;;
10216;SDS011;5152;59.674;16.838;2023-10-08T06:20:20;1.03;;;0.23;;
10216;SDS011;5152;59.674;16.838;2023-10-08T06:22:50;0.40;;;0.40;;
10216;SDS011;5152;59.674;16.838;2023-10-08T06:25:26;0.87;;;0.53;;
10216;SDS011;5152;59.674;16.838;2023-10-08T06:27:53;0.40;;;0.30;;
10216;SDS011;5152;59.674;16.838;2023-10-08T06:30:21;1.30;;;0.33;;
10216;SDS011;5152;59.674;16.838;2023-10-08T06:32:48;0.40;;;0.40;;
10216;SDS011;5152;59.674;16.838;2023-10-08T06:35:19;1.80;;;0.63;;
10216;SDS011;5152;59.674;16.838;2023-10-08T06:37:50;1.70;;;0.50;;
10216;SDS011;5152;59.674;16.838;2023-10-08T06:40:20;0.57;;;0.50;;
10216;SDS011;5152;59.674;16.838;2023-10-08T06:43:07;0.83;;;0.50;;
10216;SDS011;5152;59.674;16.838;2023-10-08T06:45:40;0.30;;;0.30;;
10216;SDS011;5152;59.674;16.838;2023-10-08T06:48:07;0.80;;;0.50;;
10216;SDS011;5152;59.674;16.838;2023-10-08T06:50:34;0.53;;;0.53;;
10216;SDS011;5152;59.674;16.838;2023-10-08T06:53:01;0.37;;;0.37;;
10216;SDS011;5152;59.674;16.838;2023-10-08T06:55:32;0.43;;;0.43;;
10216;SDS011;5152;59.674;16.838;2023-10-08T06:58:01;3.03;;;0.43;;
10216;SDS011;5152;59.674;16.838;2023-10-08T07:00:34;0.30;;;0.30;;
10216;SDS011;5152;59.674;16.838;2023-10-08T07:03:06;3.13;;;0.80;;
10216;SDS011;5152;59.674;16.838;2023-10-08T07:05:35;2.17;;;0.70;;
10216;SDS011;5152;59.674;16.838;2023-10-08T07:08:08;1.80;;;0.73;;
10216;SDS011;5152;59.674;16.838;2023-10-08T07:10:38;1.50;;;0.63;;
10216;SDS011;5152;59.674;16.838;2023-10-08T07:13:07;0.87;;;0.77;;
10216;SDS011;5152;59.674;16.838;2023-10-08T07:15:36;1.53;;;0.80;;
10216;SDS011;5152;59.674;16.838;2023-10-08T07:18:05;0.93;;;0.60;;
10216;SDS011;5152;59.674;16.838;2023-10-08T07:20:38;3.53;;;0.70;;
10216;SDS011;5152;59.674;16.838;2023-10-08T07:23:07;2.13;;;0.70;;
10216;SDS011;5152;59.674;16.838;2023-10-08T07:25:44;1.03;;;0.80;;
10216;SDS011;5152;59.674;16.838;2023-10-08T07:28:18;0.60;;;0.57;;
10216;SDS011;5152;59.674;16.838;2023-10-08T07:30:47;2.43;;;0.77;;
10216;SDS011;5152;59.674;16.838;2023-10-08T07:33:15;1.03;;;0.70;;
10216;SDS011;5152;59.674;16.838;2023-10-08T07:35:46;2.97;;;0.87;;
10216;SDS011;5152;59.674;16.838;2023-10-08T07:38:33;1.23;;;0.63;;
10216;SDS011;5152;59.674;16.838;2023-10-08T07:41:00;2.20;;;1.07;;
10216;SDS011;5152;59.674;16.838;2023-10-08T07:43:27;2.93;;;0.70;;
10216;SDS011;5152;59.674;16.838;2023-10-08T07:45:59;0.63;;;0.50;;
10216;SDS011;5152;59.674;16.838;2023-10-08T07:48:25;1.10;;;0.63;;
10216;SDS011;5152;59.674;16.838;2023-10-08T07:50:55;1.60;;;0.90;;
10216;SDS011;5152;59.674;16.838;2023-10-08T07:53:22;0.70;;;0.50;;
10216;SDS011;5152;59.674;16.838;2023-10-08T07:55:49;1.50;;;0.83;;
10216;SDS011;5152;59.674;16.838;2023-10-08T07:58:17;0.80;;;0.63;;
10216;SDS011;5152;59.674;16.838;2023-10-08T08:00:45;0.93;;;0.47;;
10216;SDS011;5152;59.674;16.838;2023-10-08T08:03:21;1.47;;;0.70;;
10216;SDS011;5152;59.674;16.838;2023-10-08T08:05:49;4.17;;;1.00;;
10216;SDS011;5152;59.674;16.838;2023-10-08T08:08:21;1.03;;;0.93;;
10216;SDS011;5152;59.674;16.838;2023-10-08T08:10:52;1.70;;;0.83;;
10216;SDS011;5152;59.674;16.838;2023-10-08T08:13:28;2.13;;;0.83;;
10216;SDS011;5152;59.674;16.838;2023-10-08T08:15:55;1.07;;;0.60;;
10216;SDS011;5152;59.674;16.838;2023-10-08T08:18:25;1.93;;;0.80;;
10216;SDS011;5152;59.674;16.838;2023-10-08T08:20:58;0.80;;;0.60;;
10216;SDS011;5152;59.674;16.838;2023-10-08T08:23:27;1.07;;;0.93;;
10216;SDS011;5152;59.674;16.838;2023-10-08T08:25:55;1.63;;;0.70;;
10216;SDS011;5152;59.674;16.838;2023-10-08T08:28:31;1.23;;;1.00;;
10216;SDS011;5152;59.674;16.838;2023-10-08T08:31:01;1.40;;;0.83;;
10216;SDS011;5152;59.674;16.838;2023-10-08T08:33:31;1.20;;;0.90;;
10216;SDS011;5152;59.674;16.838;2023-10-08T08:36:17;1.73;;;0.80;;
10216;SDS011;5152;59.674;16.838;2023-10-08T08:38:44;0.77;;;0.77;;
10216;SDS011;5152;59.674;16.838;2023-10-08T08:41:12;1.07;;;0.80;;
10216;SDS011;5152;59.674;16.838;2023-10-08T08:43:43;0.80;;;0.67;;
10216;SDS011;5152;59.674;16.838;2023-10-08T08:46:11;2.57;;;1.10;;
10216;SDS011;5152;59.674;16.838;2023-10-08T08:48:40;2.67;;;1.30;;
10216;SDS011;5152;59.674;16.838;2023-10-08T08:51:09;1.47;;;1.30;;
10216;SDS011;5152;59.674;16.838;2023-10-08T08:53:37;2.33;;;1.10;;
10216;SDS011;5152;59.674;16.838;2023-10-08T08:56:05;2.87;;;1.10;;
10216;SDS011;5152;59.674;16.838;2023-10-08T08:58:34;2.57;;;1.40;;
10216;SDS011;5152;59.674;16.838;2023-10-08T09:01:02;1.83;;;1.13;;
10216;SDS011;5152;59.674;16.838;2023-10-08T09:03:30;1.73;;;1.00;;
10216;SDS011;5152;59.674;16.838;2023-10-08T09:05:58;1.47;;;1.10;;
10216;SDS011;5152;59.674;16.838;2023-10-08T09:08:27;1.47;;;0.70;;
10216;SDS011;5152;59.674;16.838;2023-10-08T09:10:57;0.70;;;0.60;;
10216;SDS011;5152;59.674;16.838;2023-10-08T09:13:26;0.90;;;0.60;;
10216;SDS011;5152;59.674;16.838;2023-10-08T09:15:56;0.60;;;0.53;;
10216;SDS011;5152;59.674;16.838;2023-10-08T09:18:23;3.20;;;0.70;;
10216;SDS011;5152;59.674;16.838;2023-10-08T09:20:52;1.13;;;0.70;;
10216;SDS011;5152;59.674;16.838;2023-10-08T09:23:21;3.27;;;0.70;;
10216;SDS011;5152;59.674;16.838;2023-10-08T09:25:50;3.97;;;1.50;;
10216;SDS011;5152;59.674;16.838;2023-10-08T09:28:26;2.17;;;0.90;;
10216;SDS011;5152;59.674;16.838;2023-10-08T09:30:54;3.00;;;0.83;;
10216;SDS011;5152;59.674;16.838;2023-10-08T09:33:24;4.40;;;0.90;;
10216;SDS011;5152;59.674;16.838;2023-10-08T09:35:51;2.07;;;0.83;;
10216;SDS011;5152;59.674;16.838;2023-10-08T09:38:22;14.73;;;1.63;;
10216;SDS011;5152;59.674;16.838;2023-10-08T09:40:49;1.97;;;0.83;;
10216;SDS011;5152;59.674;16.838;2023-10-08T09:43:19;3.13;;;1.30;;
10216;SDS011;5152;59.674;16.838;2023-10-08T09:45:47;3.00;;;0.93;;
10216;SDS011;5152;59.674;16.838;2023-10-08T09:48:15;2.00;;;0.97;;
10216;SDS011;5152;59.674;16.838;2023-10-08T09:50:43;1.60;;;0.63;;
10216;SDS011;5152;59.674;16.838;2023-10-08T09:53:11;3.73;;;0.80;;
10216;SDS011;5152;59.674;16.838;2023-10-08T09:55:44;3.40;;;0.73;;
10216;SDS011;5152;59.674;16.838;2023-10-08T09:58:13;1.77;;;1.00;;
10216;SDS011;5152;59.674;16.838;2023-10-08T10:00:41;1.50;;;0.70;;
10216;SDS011;5152;59.674;16.838;2023-10-08T10:03:10;3.10;;;0.73;;
10216;SDS011;5152;59.674;16.838;2023-10-08T10:05:38;1.67;;;0.67;;
10216;SDS011;5152;59.674;16.838;2023-10-08T10:08:05;1.03;;;0.73;;
10216;SDS011;5152;59.674;16.838;2023-10-08T10:10:35;1.60;;;0.83;;
10216;SDS011;5152;59.674;16.838;2023-10-08T10:13:05;1.37;;;0.57;;
10216;SDS011;5152;59.674;16.838;2023-10-08T10:15:33;3.30;;;0.90;;
10216;SDS011;5152;59.674;16.838;2023-10-08T10:18:08;4.00;;;0.80;;
10216;SDS011;5152;59.674;16.838;2023-10-08T10:20:38;2.27;;;0.83;;
10216;SDS011;5152;59.674;16.838;2023-10-08T10:26:05;1.30;;;0.87;;
10216;SDS011;5152;59.674;16.838;2023-10-08T10:28:36;1.77;;;0.80;;
10216;SDS011;5152;59.674;16.838;2023-10-08T10:31:03;1.37;;;0.63;;
10216;SDS011;5152;59.674;16.838;2023-10-08T10:33:30;2.87;;;0.70;;
10216;SDS011;5152;59.674;16.838;2023-10-08T10:35:58;1.17;;;0.70;;
10216;SDS011;5152;59.674;16.838;2023-10-08T10:38:27;2.93;;;1.17;;
10216;SDS011;5152;59.674;16.838;2023-10-08T10:40:55;3.00;;;0.73;;
10216;SDS011;5152;59.674;16.838;2023-10-08T10:43:30;1.57;;;0.80;;
10216;SDS011;5152;59.674;16.838;2023-10-08T10:46:00;2.77;;;0.70;;
10216;SDS011;5152;59.674;16.838;2023-10-08T10:48:49;6.30;;;1.00;;
10216;SDS011;5152;59.674;16.838;2023-10-08T10:51:29;5.17;;;1.37;;
10216;SDS011;5152;59.674;16.838;2023-10-08T10:53:55;5.93;;;1.23;;
10216;SDS011;5152;59.674;16.838;2023-10-08T10:56:32;3.47;;;0.70;;
10216;SDS011;5152;59.674;16.838;2023-10-08T10:59:07;0.90;;;0.50;;
10216;SDS011;5152;59.674;16.838;2023-10-08T11:01:46;5.77;;;0.97;;
10216;SDS011;5152;59.674;16.838;2023-10-08T11:04:16;1.30;;;0.80;;
10216;SDS011;5152;59.674;16.838;2023-10-08T11:06:45;1.57;;;0.90;;
10216;SDS011;5152;59.674;16.838;2023-10-08T11:09:13;0.97;;;0.63;;
10216;SDS011;5152;59.674;16.838;2023-10-08T11:11:48;1.93;;;0.70;;
10216;SDS011;5152;59.674;16.838;2023-10-08T11:14:19;4.13;;;1.27;;
10216;SDS011;5152;59.674;16.838;2023-10-08T11:16:48;1.53;;;0.80;;
10216;SDS011;5152;59.674;16.838;2023-10-08T11:19:15;1.13;;;0.60;;
10216;SDS011;5152;59.674;16.838;2023-10-08T11:21:48;4.23;;;0.73;;
10216;SDS011;5152;59.674;16.838;2023-10-08T11:24:26;2.13;;;0.90;;
10216;SDS011;5152;59.674;16.838;2023-10-08T11:26:54;1.67;;;0.60;;
10216;SDS011;5152;59.674;16.838;2023-10-08T11:29:31;2.63;;;0.90;;
10216;SDS011;5152;59.674;16.838;2023-10-08T11:32:01;1.50;;;0.63;;
10216;SDS011;5152;59.674;16.838;2023-10-08T11:34:32;1.33;;;0.80;;
10216;SDS011;5152;59.674;16.838;2023-10-08T11:37:04;4.67;;;0.97;;
10216;SDS011;5152;59.674;16.838;2023-10-08T11:39:44;0.63;;;0.43;;
10216;SDS011;5152;59.674;16.838;2023-10-08T11:42:12;1.73;;;0.70;;
10216;SDS011;5152;59.674;16.838;2023-10-08T11:45:05;0.90;;;0.60;;
10216;SDS011;5152;59.674;16.838;2023-10-08T11:47:45;2.17;;;0.40;;
10216;SDS011;5152;59.674;16.838;2023-10-08T11:50:13;1.70;;;0.57;;
10216;SDS011;5152;59.674;16.838;2023-10-08T11:52:44;0.97;;;0.40;;
10216;SDS011;5152;59.674;16.838;2023-10-08T11:55:11;9.17;;;1.37;;
10216;SDS011;5152;59.674;16.838;2023-10-08T11:57:43;2.40;;;1.13;;
10216;SDS011;5152;59.674;16.838;2023-10-08T12:00:14;4.70;;;1.23;;
10216;SDS011;5152;59.674;16.838;2023-10-08T12:02:47;14.67;;;1.43;;
10216;SDS011;5152;59.674;16.838;2023-10-08T12:05:14;9.10;;;1.60;;
10216;SDS011;5152;59.674;16.838;2023-10-08T12:07:45;3.80;;;0.70;;
10216;SDS011;5152;59.674;16.838;2023-10-08T12:10:13;2.67;;;1.00;;
10216;SDS011;5152;59.674;16.838;2023-10-08T12:12:42;130.93;;;82.47;;
10216;SDS011;5152;59.674;16.838;2023-10-08T12:15:11;283.43;;;192.70;;
10216;SDS011;5152;59.674;16.838;2023-10-08T12:17:45;103.20;;;61.63;;
10216;SDS011;5152;59.674;16.838;2023-10-08T12:20:34;41.40;;;28.20;;
10216;SDS011;5152;59.674;16.838;2023-10-08T12:23:02;3.00;;;2.30;;
10216;SDS011;5152;59.674;16.838;2023-10-08T12:25:30;55.53;;;31.83;;
10216;SDS011;5152;59.674;16.838;2023-10-08T12:27:57;14.43;;;10.07;;
10216;SDS011;5152;59.674;16.838;2023-10-08T12:30:27;8.30;;;6.13;;
10216;SDS011;5152;59.674;16.838;2023-10-08T12:32:58;8.47;;;5.77;;
10216;SDS011;5152;59.674;16.838;2023-10-08T12:35:26;10.90;;;8.10;;
10216;SDS011;5152;59.674;16.838;2023-10-08T12:37:54;5.57;;;3.80;;
10216;SDS011;5152;59.674;16.838;2023-10-08T12:40:22;5.77;;;3.73;;
10216;SDS011;5152;59.674;16.838;2023-10-08T12:42:50;5.27;;;3.00;;
10216;SDS011;5152;59.674;16.838;2023-10-08T12:45:17;5.33;;;2.43;;
10216;SDS011;5152;59.674;16.838;2023-10-08T12:47:47;7.10;;;4.70;;
10216;SDS011;5152;59.674;16.838;2023-10-08T12:50:17;2.77;;;1.97;;
10216;SDS011;5152;59.674;16.838;2023-10-08T12:52:49;3.23;;;2.40;;
10216;SDS011;5152;59.674;16.838;2023-10-08T12:55:20;2.83;;;1.63;;
10216;SDS011;5152;59.674;16.838;2023-10-08T12:57:50;4.73;;;2.37;;
10216;SDS011;5152;59.674;16.838;2023-10-08T13:00:21;4.50;;;2.37;;
10216;SDS011;5152;59.674;16.838;2023-10-08T13:02:50;5.30;;;3.83;;
10216;SDS011;5152;59.674;16.838;2023-10-08T13:05:21;1.83;;;1.53;;
10216;SDS011;5152;59.674;16.838;2023-10-08T13:07:53;3.97;;;2.67;;
10216;SDS011;5152;59.674;16.838;2023-10-08T13:10:21;3.13;;;1.97;;
10216;SDS011;5152;59.674;16.838;2023-10-08T13:12:48;2.57;;;1.97;;
10216;SDS011;5152;59.674;16.838;2023-10-08T13:15:15;5.87;;;3.67;;
10216;SDS011;5152;59.674;16.838;2023-10-08T13:17:42;1.70;;;1.60;;
10216;SDS011;5152;59.674;16.838;2023-10-08T13:20:11;3.23;;;2.27;;
10216;SDS011;5152;59.674;16.838;2023-10-08T13:22:39;3.83;;;2.67;;
10216;SDS011;5152;59.674;16.838;2023-10-08T13:25:08;5.50;;;3.83;;
10216;SDS011;5152;59.674;16.838;2023-10-08T13:27:37;5.37;;;3.83;;
10216;SDS011;5152;59.674;16.838;2023-10-08T13:30:05;3.43;;;0.90;;
10216;SDS011;5152;59.674;16.838;2023-10-08T13:32:34;4.17;;;3.10;;
10216;SDS011;5152;59.674;16.838;2023-10-08T13:35:02;2.10;;;1.70;;
10216;SDS011;5152;59.674;16.838;2023-10-08T13:37:31;3.30;;;2.40;;
10216;SDS011;5152;59.674;16.838;2023-10-08T13:40:00;5.30;;;3.40;;
10216;SDS011;5152;59.674;16.838;2023-10-08T13:42:27;2.53;;;2.00;;
10216;SDS011;5152;59.674;16.838;2023-10-08T13:44:54;3.50;;;2.23;;
10216;SDS011;5152;59.674;16.838;2023-10-08T13:47:23;5.57;;;2.00;;
10216;SDS011;5152;59.674;16.838;2023-10-08T13:49:51;3.47;;;2.30;;
10216;SDS011;5152;59.674;16.838;2023-10-08T13:52:18;6.67;;;2.07;;
10216;SDS011;5152;59.674;16.838;2023-10-08T13:54:51;3.30;;;1.63;;
10216;SDS011;5152;59.674;16.838;2023-10-08T13:57:20;1.93;;;0.63;;
10216;SDS011;5152;59.674;16.838;2023-10-08T13:59:47;3.13;;;0.87;;
10216;SDS011;5152;59.674;16.838;2023-10-08T14:02:14;3.47;;;1.30;;
10216;SDS011;5152;59.674;16.838;2023-10-08T14:04:44;1.63;;;1.00;;
10216;SDS011;5152;59.674;16.838;2023-10-08T14:07:15;1.27;;;0.90;;
10216;SDS011;5152;59.674;16.838;2023-10-08T14:09:43;1.27;;;0.80;;
10216;SDS011;5152;59.674;16.838;2023-10-08T14:12:11;2.83;;;0.83;;
10216;SDS011;5152;59.674;16.838;2023-10-08T14:14:41;1.67;;;0.50;;
10216;SDS011;5152;59.674;16.838;2023-10-08T14:17:09;3.60;;;0.57;;
10216;SDS011;5152;59.674;16.838;2023-10-08T14:19:40;0.83;;;0.40;;
10216;SDS011;5152;59.674;16.838;2023-10-08T14:22:11;1.50;;;0.90;;
10216;SDS011;5152;59.674;16.838;2023-10-08T14:24:40;2.13;;;1.30;;
10216;SDS011;5152;59.674;16.838;2023-10-08T14:27:09;1.90;;;1.10;;
10216;SDS011;5152;59.674;16.838;2023-10-08T14:29:37;2.60;;;1.27;;
10216;SDS011;5152;59.674;16.838;2023-10-08T14:32:07;3.07;;;0.97;;
10216;SDS011;5152;59.674;16.838;2023-10-08T14:34:35;10.17;;;2.70;;
10216;SDS011;5152;59.674;16.838;2023-10-08T14:37:19;4.37;;;2.30;;
10216;SDS011;5152;59.674;16.838;2023-10-08T14:40:04;11.37;;;2.40;;
10216;SDS011;5152;59.674;16.838;2023-10-08T14:42:49;1.93;;;1.37;;
10216;SDS011;5152;59.674;16.838;2023-10-08T14:45:24;4.33;;;2.23;;
10216;SDS011;5152;59.674;16.838;2023-10-08T14:47:54;7.23;;;1.97;;
10216;SDS011;5152;59.674;16.838;2023-10-08T14:50:21;1.57;;;0.60;;
10216;SDS011;5152;59.674;16.838;2023-10-08T14:52:48;5.97;;;2.10;;
10216;SDS011;5152;59.674;16.838;2023-10-08T14:55:15;6.73;;;2.97;;
10216;SDS011;5152;59.674;16.838;2023-10-08T14:57:42;4.33;;;2.60;;
10216;SDS011;5152;59.674;16.838;2023-10-08T15:00:09;3.40;;;1.60;;
10216;SDS011;5152;59.674;16.838;2023-10-08T15:02:37;8.43;;;2.60;;
10216;SDS011;5152;59.674;16.838;2023-10-08T15:05:06;4.67;;;2.40;;
10216;SDS011;5152;59.674;16.838;2023-10-08T15:07:33;4.23;;;1.80;;
10216;SDS011;5152;59.674;16.838;2023-10-08T15:10:01;4.13;;;1.57;;
10216;SDS011;5152;59.674;16.838;2023-10-08T15:12:28;6.80;;;2.73;;
10216;SDS011;5152;59.674;16.838;2023-10-08T15:14:59;4.90;;;2.37;;
10216;SDS011;5152;59.674;16.838;2023-10-08T15:17:37;5.73;;;2.80;;